createdAt,value
2018-11-25T00:00:37.317Z,96.86
2018-11-25T00:01:37.330Z,96.55
2018-11-25T00:02:37.301Z,97.28
2018-11-25T00:03:37.307Z,97.28
2018-11-25T00:04:37.294Z,97.80
2018-11-25T00:05:37.263Z,97.80
2018-11-25T00:06:37.279Z,97.59
2018-11-25T00:07:37.241Z,97.80
2018-11-25T00:08:37.231Z,97.80
2018-11-25T00:09:37.219Z,97.33
2018-11-25T00:10:37.221Z,97.85
2018-11-25T00:11:37.225Z,97.74
2018-11-25T00:12:37.182Z,97.33
2018-11-25T00:13:37.198Z,97.22
2018-11-25T00:14:37.160Z,97.33
2018-11-25T00:15:37.152Z,97.43
2018-11-25T00:16:37.176Z,97.33
2018-11-25T00:17:37.127Z,97.43
2018-11-25T00:18:37.122Z,97.02
2018-11-25T00:19:37.105Z,97.16
2018-11-25T00:20:37.094Z,96.95
2018-11-25T00:21:37.111Z,96.95
2018-11-25T00:22:37.083Z,96.85
2018-11-25T00:23:37.082Z,97.37
2018-11-25T00:24:37.051Z,98.10
2018-11-25T00:25:37.037Z,98.41
2018-11-25T00:26:37.029Z,98.41
2018-11-25T00:27:37.035Z,98.41
2018-11-25T00:28:37.019Z,97.78
2018-11-25T00:29:37.004Z,97.89
2018-11-25T00:30:36.997Z,97.37
2018-11-25T00:31:36.973Z,97.72
2018-11-25T00:32:36.980Z,97.31
2018-11-25T00:33:36.970Z,97.41
2018-11-25T00:34:36.939Z,97.41
2018-11-25T00:35:36.925Z,97.31
2018-11-25T00:36:36.921Z,97.31
2018-11-25T00:37:36.932Z,97.27
2018-11-25T00:38:36.925Z,98.03
2018-11-25T00:39:36.896Z,97.68
2018-11-25T00:40:36.869Z,97.89
2018-11-25T00:41:36.858Z,97.20
2018-11-25T00:42:36.875Z,97.27
2018-11-25T00:43:36.868Z,97.06
2018-11-25T00:44:36.826Z,96.95
2018-11-25T00:45:36.829Z,96.64
2018-11-25T00:46:36.804Z,96.37
2018-11-25T00:47:36.816Z,96.58
2018-11-25T00:48:36.779Z,97.10
2018-11-25T00:49:36.770Z,96.83
2018-11-25T00:50:36.760Z,97.40
2018-11-25T00:51:36.760Z,96.78
2018-11-25T00:52:36.757Z,97.30
2018-11-25T00:53:36.725Z,97.56
2018-11-25T00:54:36.718Z,98.08
2018-11-25T00:55:36.704Z,97.77
2018-11-25T00:56:36.690Z,97.77
2018-11-25T00:57:36.710Z,97.35
2018-11-25T00:58:36.667Z,97.45
2018-11-25T00:59:36.713Z,97.25
2018-11-25T01:00:36.655Z,97.25
2018-11-25T01:01:36.636Z,97.98
2018-11-25T01:02:36.661Z,97.88
2018-11-25T01:03:36.632Z,97.83
2018-11-25T01:04:36.603Z,97.83
2018-11-25T01:05:36.606Z,97.83
2018-11-25T01:06:36.584Z,97.62
2018-11-25T01:07:36.597Z,98.03
2018-11-25T01:08:36.563Z,97.62
2018-11-25T01:09:36.544Z,97.99
2018-11-25T01:10:36.552Z,97.78
2018-11-25T01:11:36.522Z,96.95
2018-11-25T01:12:36.536Z,96.95
2018-11-25T01:13:36.526Z,96.85
2018-11-25T01:14:36.488Z,97.06
2018-11-25T01:15:36.481Z,97.06
2018-11-25T01:16:36.492Z,97.27
2018-11-25T01:17:36.460Z,97.37
2018-11-25T01:18:36.472Z,97.47
2018-11-25T01:19:36.435Z,97.27
2018-11-25T01:20:36.448Z,97.37
2018-11-25T01:21:36.415Z,97.95
2018-11-25T01:22:36.425Z,97.95
2018-11-25T01:23:36.424Z,97.89
2018-11-25T01:24:36.379Z,97.85
2018-11-25T01:25:36.366Z,98.36
2018-11-25T01:26:36.351Z,98.26
2018-11-25T01:27:36.366Z,98.47
2018-11-25T01:28:36.329Z,98.78
2018-11-25T01:29:36.331Z,98.57
2018-11-25T01:30:36.311Z,98.63
2018-11-25T01:31:36.299Z,98.63
2018-11-25T01:32:36.307Z,98.21
2018-11-25T01:33:36.285Z,98.52
2018-11-25T01:34:36.262Z,98.83
2018-11-25T01:35:36.266Z,98.16
2018-11-25T01:36:36.240Z,98.36
2018-11-25T01:37:36.253Z,98.47
2018-11-25T01:38:36.221Z,98.78
2018-11-25T01:39:36.228Z,98.21
2018-11-25T01:40:36.195Z,98.63
2018-11-25T01:41:36.195Z,98.73
2018-11-25T01:42:36.173Z,98.90
2018-11-25T01:43:36.159Z,98.79
2018-11-25T01:44:36.172Z,99.10
2018-11-25T01:45:36.142Z,99.00
2018-11-25T01:46:36.135Z,98.69
2018-11-25T01:47:36.149Z,99.10
2018-11-25T01:48:36.110Z,99.05
2018-11-25T01:49:36.105Z,98.48
2018-11-25T01:50:36.092Z,98.63
2018-11-25T01:51:36.090Z,98.42
2018-11-25T01:52:36.081Z,99.15
2018-11-25T01:53:36.053Z,98.94
2018-11-25T01:54:36.041Z,98.73
2018-11-25T01:55:36.029Z,98.99
2018-11-25T01:56:36.014Z,99.09
2018-11-25T01:57:36.044Z,99.82
2018-11-25T01:58:35.994Z,99.82
2018-11-25T01:59:35.982Z,99.71
2018-11-25T02:00:35.977Z,99.77
2018-11-25T02:01:35.957Z,99.46
2018-11-25T02:02:35.970Z,99.99
2018-11-25T02:03:35.945Z,99.56
2018-11-25T02:04:35.970Z,99.66
2018-11-25T02:05:35.930Z,99.99
2018-11-25T02:06:35.905Z,99.66
2018-11-25T02:07:35.923Z,99.66
2018-11-25T02:08:35.880Z,99.99
2018-11-25T02:09:35.869Z,99.98
2018-11-25T02:10:35.862Z,99.99
2018-11-25T02:11:35.857Z,99.99
2018-11-25T02:12:35.865Z,99.99
2018-11-25T02:13:35.822Z,99.99
2018-11-25T02:14:35.814Z,99.99
2018-11-25T02:15:35.800Z,99.99
2018-11-25T02:16:35.794Z,99.99
2018-11-25T02:17:35.815Z,99.99
2018-11-25T02:18:35.767Z,99.99
2018-11-25T02:19:35.781Z,99.99
2018-11-25T02:20:35.744Z,99.99
2018-11-25T02:21:35.737Z,99.99
2018-11-25T02:22:35.729Z,99.99
2018-11-25T02:23:35.745Z,99.99
2018-11-25T02:24:35.702Z,99.99
2018-11-25T02:25:35.693Z,99.99
2018-11-25T02:26:35.723Z,99.99
2018-11-25T02:27:35.667Z,99.99
2018-11-25T02:28:35.680Z,99.99
2018-11-25T02:29:35.653Z,99.99
2018-11-25T02:30:35.639Z,99.99
2018-11-25T02:31:35.627Z,99.99
2018-11-25T02:32:35.612Z,99.99
2018-11-25T02:33:35.620Z,99.99
2018-11-25T02:34:35.585Z,99.99
2018-11-25T02:35:35.577Z,99.99
2018-11-25T02:36:35.586Z,99.99
2018-11-25T02:37:35.556Z,99.99
2018-11-25T02:38:35.568Z,99.99
2018-11-25T02:39:35.531Z,99.99
2018-11-25T02:40:35.519Z,99.99
2018-11-25T02:41:35.508Z,99.99
2018-11-25T02:42:35.510Z,99.99
2018-11-25T02:43:35.512Z,99.99
2018-11-25T02:44:35.476Z,99.99
2018-11-25T02:45:35.471Z,99.99
2018-11-25T02:46:35.453Z,99.99
2018-11-25T02:47:35.444Z,99.99
2018-11-25T02:48:35.465Z,99.99
2018-11-25T02:49:35.430Z,99.99
2018-11-25T02:50:35.434Z,99.99
2018-11-25T02:51:35.399Z,99.99
2018-11-25T02:52:35.390Z,99.99
2018-11-25T02:53:35.404Z,99.99
2018-11-25T02:54:35.363Z,99.99
2018-11-25T02:55:35.356Z,99.99
2018-11-25T02:56:35.362Z,99.99
2018-11-25T02:57:35.333Z,99.99
2018-11-25T02:58:35.346Z,99.99
2018-11-25T02:59:35.310Z,99.99
2018-11-25T03:00:35.305Z,99.99
2018-11-25T03:01:35.287Z,99.99
2018-11-25T03:02:35.282Z,99.99
2018-11-25T03:03:35.295Z,99.99
2018-11-25T03:04:35.257Z,99.99
2018-11-25T03:05:35.265Z,99.99
2018-11-25T03:06:35.236Z,99.98
2018-11-25T03:07:35.225Z,99.98
2018-11-25T03:08:35.216Z,99.87
2018-11-25T03:09:35.199Z,99.87
2018-11-25T03:10:35.210Z,99.87
2018-11-25T03:11:35.173Z,99.98
2018-11-25T03:12:35.163Z,99.99
2018-11-25T03:13:35.182Z,99.98
2018-11-25T03:14:35.148Z,99.99
2018-11-25T03:15:35.136Z,99.99
2018-11-25T03:16:35.118Z,99.99
2018-11-25T03:17:35.114Z,99.99
2018-11-25T03:18:35.121Z,99.93
2018-11-25T03:19:35.088Z,99.93
2018-11-25T03:20:35.071Z,99.82
2018-11-25T03:21:35.082Z,99.82
2018-11-25T03:22:35.052Z,99.72
2018-11-25T03:23:35.071Z,99.37
2018-11-25T03:24:35.027Z,99.37
2018-11-25T03:25:35.046Z,99.16
2018-11-25T03:26:35.004Z,99.68
2018-11-25T03:27:35.021Z,99.47
2018-11-25T03:28:35.005Z,99.16
2018-11-25T03:29:34.969Z,98.85
2018-11-25T03:30:34.961Z,98.69
2018-11-25T03:31:34.947Z,98.58
2018-11-25T03:32:34.943Z,98.43
2018-11-25T03:33:34.954Z,98.74
2018-11-25T03:34:34.924Z,98.54
2018-11-25T03:35:34.909Z,98.12
2018-11-25T03:36:34.901Z,97.91
2018-11-25T03:37:34.880Z,97.44
2018-11-25T03:38:34.901Z,96.88
2018-11-25T03:39:34.865Z,97.13
2018-11-25T03:40:34.877Z,96.98
2018-11-25T03:41:34.838Z,97.09
2018-11-25T03:42:34.842Z,96.67
2018-11-25T03:43:34.811Z,96.57
2018-11-25T03:44:34.801Z,96.26
2018-11-25T03:45:34.815Z,96.78
2018-11-25T03:46:34.781Z,96.47
2018-11-25T03:47:34.767Z,95.95
2018-11-25T03:48:34.778Z,96.26
2018-11-25T03:49:34.745Z,95.74
2018-11-25T03:50:34.763Z,95.74
2018-11-25T03:51:34.727Z,95.53
2018-11-25T03:52:34.711Z,95.53
2018-11-25T03:53:34.705Z,95.57
2018-11-25T03:54:34.726Z,96.26
2018-11-25T03:55:34.725Z,96.05
2018-11-25T03:56:34.667Z,96.36
2018-11-25T03:57:34.656Z,96.05
2018-11-25T03:58:34.648Z,96.20
2018-11-25T03:59:34.660Z,96.09
2018-11-25T04:00:34.644Z,96.14
2018-11-25T04:01:34.611Z,96.55
2018-11-25T04:02:34.609Z,96.55
2018-11-25T04:03:34.586Z,96.66
2018-11-25T04:04:34.607Z,96.60
2018-11-25T04:05:34.589Z,96.97
2018-11-25T04:06:34.553Z,97.12
2018-11-25T04:07:34.544Z,97.38
2018-11-25T04:08:34.541Z,97.28
2018-11-25T04:09:34.554Z,97.59
2018-11-25T04:10:34.530Z,97.59
2018-11-25T04:11:34.499Z,97.33
2018-11-25T04:12:34.489Z,97.43
2018-11-25T04:13:34.479Z,97.12
2018-11-25T04:14:34.497Z,97.43
2018-11-25T04:15:34.461Z,97.53
2018-11-25T04:16:34.447Z,97.74
2018-11-25T04:17:34.431Z,97.53
2018-11-25T04:18:34.430Z,97.64
2018-11-25T04:19:34.432Z,97.43
2018-11-25T04:20:34.419Z,97.64
2018-11-25T04:21:34.388Z,97.74
2018-11-25T04:22:34.434Z,98.11
2018-11-25T04:23:34.372Z,97.69
2018-11-25T04:24:34.389Z,97.59
2018-11-25T04:25:34.354Z,97.69
2018-11-25T04:26:34.341Z,97.49
2018-11-25T04:27:34.317Z,97.59
2018-11-25T04:28:34.319Z,97.38
2018-11-25T04:29:34.319Z,97.69
2018-11-25T04:30:34.291Z,97.28
2018-11-25T04:31:34.300Z,96.76
2018-11-25T04:32:34.263Z,97.17
2018-11-25T04:33:34.254Z,97.28
2018-11-25T04:34:34.268Z,97.07
2018-11-25T04:35:34.232Z,97.74
2018-11-25T04:36:34.249Z,98.11
2018-11-25T04:37:34.266Z,98.21
2018-11-25T04:38:34.214Z,97.90
2018-11-25T04:39:34.226Z,98.52
2018-11-25T04:40:34.174Z,98.83
2018-11-25T04:41:34.171Z,98.94
2018-11-25T04:42:34.159Z,98.83
2018-11-25T04:43:34.143Z,98.90
2018-11-25T04:44:34.180Z,98.38
2018-11-25T04:45:34.137Z,98.38
2018-11-25T04:46:34.133Z,98.07
2018-11-25T04:47:34.097Z,97.96
2018-11-25T04:48:34.091Z,98.27
2018-11-25T04:49:34.099Z,98.17
2018-11-25T04:50:34.075Z,97.13
2018-11-25T04:51:34.084Z,97.24
2018-11-25T04:52:34.048Z,97.24
2018-11-25T04:53:34.032Z,96.92
2018-11-25T04:54:34.050Z,96.82
2018-11-25T04:55:34.013Z,97.38
2018-11-25T04:56:34.028Z,96.97
2018-11-25T04:57:34.033Z,97.59
2018-11-25T04:58:33.980Z,97.17
2018-11-25T04:59:34.005Z,97.49
2018-11-25T05:00:33.969Z,97.80
2018-11-25T05:01:33.977Z,98.21
2018-11-25T05:02:33.929Z,97.80
2018-11-25T05:03:33.919Z,98.07
2018-11-25T05:04:33.932Z,97.86
2018-11-25T05:05:33.893Z,98.33
2018-11-25T05:06:33.906Z,97.81
2018-11-25T05:07:33.886Z,97.09
2018-11-25T05:08:33.860Z,97.60
2018-11-25T05:09:33.849Z,97.09
2018-11-25T05:10:33.839Z,96.98
2018-11-25T05:11:33.851Z,97.19
2018-11-25T05:12:33.822Z,96.62
2018-11-25T05:13:33.812Z,96.47
2018-11-25T05:14:33.829Z,96.05
2018-11-25T05:15:33.783Z,96.01
2018-11-25T05:16:33.798Z,96.01
2018-11-25T05:17:33.767Z,96.01
2018-11-25T05:18:33.753Z,95.90
2018-11-25T05:19:33.760Z,96.42
2018-11-25T05:20:33.743Z,96.31
2018-11-25T05:21:33.735Z,96.42
2018-11-25T05:22:33.705Z,95.59
2018-11-25T05:23:33.698Z,95.90
2018-11-25T05:24:33.709Z,95.80
2018-11-25T05:25:33.674Z,95.64
2018-11-25T05:26:33.693Z,95.78
2018-11-25T05:27:33.666Z,96.30
2018-11-25T05:28:33.667Z,96.24
2018-11-25T05:29:33.652Z,96.66
2018-11-25T05:30:33.620Z,97.13
2018-11-25T05:31:33.628Z,96.72
2018-11-25T05:32:33.596Z,96.51
2018-11-25T05:33:33.581Z,96.82
2018-11-25T05:34:33.611Z,96.88
2018-11-25T05:35:33.562Z,96.05
2018-11-25T05:36:33.573Z,96.36
2018-11-25T05:37:33.541Z,95.95
2018-11-25T05:38:33.532Z,95.47
2018-11-25T05:39:33.521Z,95.78
2018-11-25T05:40:33.591Z,96.14
2018-11-25T05:41:33.493Z,96.19
2018-11-25T05:42:33.483Z,96.91
2018-11-25T05:43:33.468Z,96.86
2018-11-25T05:44:33.457Z,96.97
2018-11-25T05:45:33.469Z,97.17
2018-11-25T05:46:33.454Z,97.13
2018-11-25T05:47:33.436Z,97.03
2018-11-25T05:48:33.411Z,96.61
2018-11-25T05:49:36.805Z,96.61
2018-11-25T05:50:33.420Z,96.14
2018-11-25T05:51:33.377Z,96.55
2018-11-25T05:52:33.366Z,96.76
2018-11-25T05:53:33.362Z,97.28
2018-11-25T05:54:33.360Z,97.13
2018-11-25T05:55:33.356Z,97.24
2018-11-25T05:56:33.324Z,97.13
2018-11-25T05:57:33.310Z,96.72
2018-11-25T05:58:33.306Z,96.82
2018-11-25T05:59:34.394Z,96.67
2018-11-25T06:00:33.312Z,96.41
2018-11-25T06:01:33.270Z,96.20
2018-11-25T06:02:33.253Z,97.13
2018-11-25T06:03:33.241Z,97.13
2018-11-25T06:04:33.233Z,96.82
2018-11-25T06:05:33.248Z,97.65
2018-11-25T06:06:33.238Z,97.65
2018-11-25T06:07:33.225Z,97.65
2018-11-25T06:08:33.189Z,97.39
2018-11-25T06:09:33.179Z,97.39
2018-11-25T06:10:33.163Z,97.19
2018-11-25T06:11:33.152Z,96.98
2018-11-25T06:12:33.185Z,97.19
2018-11-25T06:13:33.130Z,97.29
2018-11-25T06:14:33.118Z,96.88
2018-11-25T06:15:33.142Z,96.67
2018-11-25T06:16:33.096Z,96.98
2018-11-25T06:17:33.094Z,96.88
2018-11-25T06:18:33.103Z,96.47
2018-11-25T06:19:33.062Z,97.09
2018-11-25T06:20:33.077Z,97.19
2018-11-25T06:21:33.044Z,96.88
2018-11-25T06:22:33.033Z,97.09
2018-11-25T06:23:33.020Z,96.78
2018-11-25T06:24:33.029Z,97.09
2018-11-25T06:25:33.019Z,96.47
2018-11-25T06:26:32.993Z,96.57
2018-11-25T06:27:38.100Z,97.29
2018-11-25T06:28:33.960Z,96.67
2018-11-25T06:29:32.951Z,96.83
2018-11-25T06:30:32.981Z,96.94
2018-11-25T06:31:32.926Z,96.73
2018-11-25T06:32:32.920Z,96.11
2018-11-25T06:33:32.906Z,96.47
2018-11-25T06:34:32.902Z,96.01
2018-11-25T06:35:32.907Z,96.01
2018-11-25T06:36:32.883Z,96.21
2018-11-25T06:37:32.885Z,95.84
2018-11-25T06:38:32.887Z,96.11
2018-11-25T06:39:32.876Z,96.11
2018-11-25T06:40:32.877Z,95.39
2018-11-25T06:41:34.105Z,95.70
2018-11-25T06:42:32.837Z,95.70
2018-11-25T06:43:32.865Z,95.18
2018-11-25T06:44:32.808Z,95.28
2018-11-25T06:45:32.817Z,95.70
2018-11-25T06:46:32.763Z,95.18
2018-11-25T06:47:32.754Z,95.39
2018-11-25T06:48:32.800Z,95.74
2018-11-25T06:49:32.753Z,95.74
2018-11-25T06:50:32.741Z,95.28
2018-11-25T06:51:32.738Z,95.28
2018-11-25T06:52:32.720Z,95.39
2018-11-25T06:53:32.690Z,95.70
2018-11-25T06:54:32.680Z,95.07
2018-11-25T06:55:32.690Z,95.90
2018-11-25T06:56:32.646Z,95.80
2018-11-25T06:57:32.646Z,95.07
2018-11-25T06:58:32.623Z,96.11
2018-11-25T06:59:32.614Z,96.11
2018-11-25T07:00:32.631Z,95.70
2018-11-25T07:01:32.618Z,95.59
2018-11-25T07:02:32.582Z,95.80
2018-11-25T07:03:32.571Z,96.27
2018-11-25T07:04:32.558Z,96.27
2018-11-25T07:05:32.570Z,96.17
2018-11-25T07:06:32.539Z,96.37
2018-11-25T07:07:32.567Z,96.06
2018-11-25T07:08:32.540Z,96.12
2018-11-25T07:09:32.502Z,96.58
2018-11-25T07:10:32.489Z,96.58
2018-11-25T07:11:32.476Z,96.69
2018-11-25T07:12:32.491Z,96.69
2018-11-25T07:13:32.469Z,96.58
2018-11-25T07:14:32.471Z,97.20
2018-11-25T07:15:32.461Z,96.95
2018-11-25T07:16:32.432Z,97.00
2018-11-25T07:17:32.415Z,97.31
2018-11-25T07:18:32.398Z,97.10
2018-11-25T07:19:32.389Z,96.58
2018-11-25T07:20:32.420Z,96.58
2018-11-25T07:21:32.370Z,97.00
2018-11-25T07:22:32.373Z,96.37
2018-11-25T07:23:32.342Z,97.20
2018-11-25T07:24:32.334Z,96.58
2018-11-25T07:25:32.345Z,96.75
2018-11-25T07:26:32.314Z,96.64
2018-11-25T07:27:32.299Z,96.44
2018-11-25T07:28:32.302Z,96.58
2018-11-25T07:29:32.292Z,96.37
2018-11-25T07:30:32.302Z,96.79
2018-11-25T07:31:32.251Z,97.20
2018-11-25T07:32:32.268Z,97.00
2018-11-25T07:33:32.235Z,96.79
2018-11-25T07:34:32.226Z,97.00
2018-11-25T07:35:32.232Z,97.31
2018-11-25T07:36:32.213Z,97.20
2018-11-25T07:37:32.234Z,97.10
2018-11-25T07:38:32.195Z,96.85
2018-11-25T07:39:32.162Z,97.16
2018-11-25T07:40:32.157Z,96.95
2018-11-25T07:41:32.163Z,96.79
2018-11-25T07:42:32.140Z,96.44
2018-11-25T07:43:32.158Z,96.33
2018-11-25T07:44:32.109Z,96.17
2018-11-25T07:45:32.094Z,96.62
2018-11-25T07:46:32.108Z,97.00
2018-11-25T07:47:32.071Z,96.58
2018-11-25T07:48:32.086Z,97.31
2018-11-25T07:49:32.059Z,96.58
2018-11-25T07:50:32.052Z,96.58
2018-11-25T07:51:32.071Z,96.89
2018-11-25T07:52:32.020Z,96.58
2018-11-25T07:53:32.031Z,97.00
2018-11-25T07:54:31.999Z,96.89
2018-11-25T07:55:31.985Z,97.10
2018-11-25T07:56:31.996Z,97.00
2018-11-25T07:57:31.996Z,96.89
2018-11-25T07:58:31.950Z,97.00
2018-11-25T07:59:32.001Z,97.31
2018-11-25T08:00:31.942Z,97.62
2018-11-25T08:01:31.953Z,97.57
2018-11-25T08:02:31.919Z,97.62
2018-11-25T08:03:31.945Z,97.10
2018-11-25T08:04:31.881Z,96.83
2018-11-25T08:05:31.880Z,96.94
2018-11-25T08:06:31.864Z,97.81
2018-11-25T08:07:32.689Z,98.08
2018-11-25T08:08:31.876Z,97.77
2018-11-25T08:09:31.827Z,98.28
2018-11-25T08:10:31.819Z,98.70
2018-11-25T08:11:31.834Z,98.75
2018-11-25T08:12:31.791Z,98.44
2018-11-25T08:13:31.784Z,98.61
2018-11-25T08:14:31.782Z,97.41
2018-11-25T08:15:31.773Z,97.77
2018-11-25T08:16:31.783Z,97.56
2018-11-25T08:17:31.763Z,97.97
2018-11-25T08:18:31.743Z,97.35
2018-11-25T08:19:31.712Z,98.70
2018-11-25T08:20:31.700Z,98.08
2018-11-25T08:21:31.714Z,98.39
2018-11-25T08:22:31.687Z,98.28
2018-11-25T08:23:31.671Z,98.49
2018-11-25T08:24:31.671Z,98.28
2018-11-25T08:25:31.652Z,97.77
2018-11-25T08:26:31.740Z,98.08
2018-11-25T08:27:31.636Z,97.97
2018-11-25T08:28:31.619Z,98.18
2018-11-25T08:29:31.624Z,98.24
2018-11-25T08:30:31.588Z,97.72
2018-11-25T08:31:31.599Z,97.83
2018-11-25T08:32:31.590Z,97.41
2018-11-25T08:33:31.564Z,97.20
2018-11-25T08:34:31.543Z,96.79
2018-11-25T08:35:31.532Z,96.37
2018-11-25T08:36:31.543Z,96.58
2018-11-25T08:37:31.521Z,96.44
2018-11-25T08:38:31.511Z,96.54
2018-11-25T08:39:31.487Z,96.44
2018-11-25T08:40:31.476Z,95.40
2018-11-25T08:41:31.489Z,96.23
2018-11-25T08:42:31.468Z,96.23
2018-11-25T08:43:31.498Z,95.71
2018-11-25T08:44:31.442Z,95.61
2018-11-25T08:45:31.422Z,95.61
2018-11-25T08:46:31.419Z,95.81
2018-11-25T08:47:31.425Z,95.75
2018-11-25T08:48:31.411Z,96.23
2018-11-25T08:49:31.386Z,96.17
2018-11-25T08:50:31.378Z,96.75
2018-11-25T08:51:32.074Z,96.02
2018-11-25T08:52:31.339Z,96.23
2018-11-25T08:53:31.329Z,95.92
2018-11-25T08:54:31.328Z,95.50
2018-11-25T08:55:31.322Z,95.61
2018-11-25T08:56:31.334Z,95.50
2018-11-25T08:57:31.297Z,95.71
2018-11-25T08:58:31.297Z,95.67
2018-11-25T08:59:31.264Z,95.46
2018-11-25T09:00:31.263Z,95.36
2018-11-25T09:01:31.268Z,94.94
2018-11-25T09:02:31.231Z,94.84
2018-11-25T09:03:31.247Z,95.71
2018-11-25T09:04:31.213Z,95.15
2018-11-25T09:05:31.215Z,95.87
2018-11-25T09:06:31.216Z,95.40
2018-11-25T09:07:31.174Z,95.65
2018-11-25T09:08:31.161Z,95.75
2018-11-25T09:09:31.174Z,96.37
2018-11-25T09:10:31.140Z,96.58
2018-11-25T09:11:31.138Z,96.48
2018-11-25T09:12:31.156Z,96.06
2018-11-25T09:13:31.106Z,96.79
2018-11-25T09:14:31.094Z,96.79
2018-11-25T09:15:31.087Z,96.48
2018-11-25T09:16:31.077Z,96.73
2018-11-25T09:17:31.088Z,96.73
2018-11-25T09:18:31.059Z,97.14
2018-11-25T09:19:31.086Z,97.35
2018-11-25T09:20:31.030Z,97.62
2018-11-25T09:21:31.021Z,97.83
2018-11-25T09:22:31.027Z,98.13
2018-11-25T09:23:30.997Z,97.72
2018-11-25T09:24:30.986Z,97.99
2018-11-25T09:25:30.983Z,98.09
2018-11-25T09:26:30.970Z,98.25
2018-11-25T09:27:30.974Z,96.95
2018-11-25T09:28:30.938Z,97.16
2018-11-25T09:29:30.950Z,96.64
2018-11-25T09:30:30.918Z,96.80
2018-11-25T09:31:30.905Z,96.80
2018-11-25T09:32:30.916Z,96.39
2018-11-25T09:33:30.898Z,96.08
2018-11-25T09:34:30.901Z,96.19
2018-11-25T09:35:30.869Z,95.92
2018-11-25T09:36:30.852Z,95.25
2018-11-25T09:37:30.841Z,95.81
2018-11-25T09:38:30.830Z,96.27
2018-11-25T09:39:30.841Z,96.44
2018-11-25T09:40:30.811Z,96.85
2018-11-25T09:41:30.809Z,96.85
2018-11-25T09:42:30.808Z,96.91
2018-11-25T09:43:30.771Z,97.32
2018-11-25T09:44:30.765Z,96.39
2018-11-25T09:45:30.748Z,96.49
2018-11-25T09:46:30.738Z,95.71
2018-11-25T09:47:30.775Z,96.75
2018-11-25T09:48:30.720Z,96.44
2018-11-25T09:49:30.703Z,97.06
2018-11-25T09:50:30.696Z,96.70
2018-11-25T09:51:30.684Z,96.95
2018-11-25T09:52:30.701Z,96.29
2018-11-25T09:53:30.668Z,96.19
2018-11-25T09:54:30.684Z,95.15
2018-11-25T09:55:30.646Z,95.46
2018-11-25T09:56:30.645Z,95.83
2018-11-25T09:57:30.615Z,95.62
2018-11-25T09:58:30.608Z,96.03
2018-11-25T09:59:30.617Z,95.36
2018-11-25T10:00:30.587Z,95.77
2018-11-25T10:01:30.578Z,95.67
2018-11-25T10:02:30.595Z,95.36
2018-11-25T10:03:30.566Z,95.92
2018-11-25T10:04:30.539Z,95.81
2018-11-25T10:05:30.527Z,96.02
2018-11-25T10:06:30.517Z,96.37
2018-11-25T10:07:30.534Z,96.95
2018-11-25T10:08:30.497Z,97.06
2018-11-25T10:09:30.521Z,97.06
2018-11-25T10:10:30.483Z,96.85
2018-11-25T10:11:30.461Z,97.00
2018-11-25T10:12:30.474Z,96.48
2018-11-25T10:13:30.435Z,97.10
2018-11-25T10:14:30.442Z,97.04
2018-11-25T10:15:30.411Z,96.94
2018-11-25T10:16:30.404Z,96.83
2018-11-25T10:17:30.421Z,96.83
2018-11-25T10:18:30.381Z,97.14
2018-11-25T10:19:30.390Z,97.14
2018-11-25T10:20:30.400Z,97.14
2018-11-25T10:21:30.351Z,97.04
2018-11-25T10:22:30.337Z,97.56
2018-11-25T10:23:30.328Z,97.77
2018-11-25T10:24:30.332Z,97.35
2018-11-25T10:25:30.299Z,97.14
2018-11-25T10:26:30.299Z,97.10
2018-11-25T10:27:30.313Z,97.41
2018-11-25T10:28:30.273Z,96.69
2018-11-25T10:29:30.266Z,97.00
2018-11-25T10:30:30.250Z,96.23
2018-11-25T10:31:30.289Z,96.79
2018-11-25T10:32:30.280Z,96.54
2018-11-25T10:33:30.219Z,96.02
2018-11-25T10:34:30.210Z,96.19
2018-11-25T10:35:30.210Z,95.56
2018-11-25T10:36:30.187Z,95.15
2018-11-25T10:37:30.211Z,94.94
2018-11-25T10:38:30.152Z,94.90
2018-11-25T10:39:30.144Z,94.53
2018-11-25T10:40:30.170Z,94.32
2018-11-25T10:41:30.127Z,93.91
2018-11-25T10:42:30.133Z,93.91
2018-11-25T10:43:30.101Z,93.76
2018-11-25T10:44:30.089Z,94.59
2018-11-25T10:45:30.083Z,93.97
2018-11-25T10:46:30.077Z,94.07
2018-11-25T10:47:30.088Z,94.48
2018-11-25T10:48:30.043Z,94.59
2018-11-25T10:49:30.030Z,93.97
2018-11-25T10:50:30.021Z,93.97
2018-11-25T10:51:30.009Z,93.55
2018-11-25T10:52:30.022Z,94.43
2018-11-25T10:53:29.989Z,94.59
2018-11-25T10:54:29.978Z,94.90
2018-11-25T10:55:30.039Z,94.38
2018-11-25T10:56:29.962Z,93.97
2018-11-25T10:57:29.973Z,94.07
2018-11-25T10:58:29.930Z,93.66
2018-11-25T10:59:29.941Z,93.97
2018-11-25T11:00:29.936Z,94.03
2018-11-25T11:01:29.895Z,93.14
2018-11-25T11:02:29.898Z,92.93
2018-11-25T11:03:29.896Z,93.04
2018-11-25T11:04:29.880Z,92.99
2018-11-25T11:05:29.878Z,93.51
2018-11-25T11:06:29.848Z,93.51
2018-11-25T11:07:29.832Z,92.99
2018-11-25T11:08:29.817Z,92.63
2018-11-25T11:09:29.817Z,93.91
2018-11-25T11:10:29.833Z,93.85
2018-11-25T11:11:29.783Z,95.04
2018-11-25T11:12:29.776Z,94.84
2018-11-25T11:13:29.790Z,93.97
2018-11-25T11:14:29.750Z,93.97
2018-11-25T11:15:29.762Z,93.97
2018-11-25T11:16:29.741Z,93.97
2018-11-25T11:17:29.725Z,94.28
2018-11-25T11:18:29.746Z,94.07
2018-11-25T11:19:29.699Z,93.14
2018-11-25T11:20:29.708Z,93.20
2018-11-25T11:21:29.673Z,92.79
2018-11-25T11:22:29.661Z,92.99
2018-11-25T11:23:29.673Z,92.99
2018-11-25T11:24:29.656Z,92.64
2018-11-25T11:25:29.632Z,92.27
2018-11-25T11:26:29.618Z,92.58
2018-11-25T11:27:29.611Z,92.17
2018-11-25T11:28:29.624Z,92.68
2018-11-25T11:29:29.584Z,92.72
2018-11-25T11:30:29.585Z,93.04
2018-11-25T11:31:29.561Z,93.49
2018-11-25T11:32:29.551Z,93.76
2018-11-25T11:33:29.567Z,94.48
2018-11-25T11:34:29.533Z,94.79
2018-11-25T11:35:29.519Z,94.75
2018-11-25T11:36:29.508Z,94.34
2018-11-25T11:37:29.538Z,94.03
2018-11-25T11:38:29.533Z,94.23
2018-11-25T11:39:29.478Z,94.03
2018-11-25T11:40:29.503Z,94.48
2018-11-25T11:41:29.516Z,93.97
2018-11-25T11:42:29.486Z,93.20
2018-11-25T11:43:29.455Z,93.72
2018-11-25T11:44:29.426Z,93.51
2018-11-25T11:45:29.431Z,92.58
2018-11-25T11:46:29.396Z,92.93
2018-11-25T11:47:29.382Z,93.30
2018-11-25T11:48:29.451Z,93.10
2018-11-25T11:49:29.367Z,92.83
2018-11-25T11:50:29.425Z,93.04
2018-11-25T11:51:29.344Z,93.91
2018-11-25T11:52:29.342Z,94.01
2018-11-25T11:53:29.341Z,94.43
2018-11-25T11:54:29.312Z,95.09
2018-11-25T11:55:29.340Z,95.92
2018-11-25T11:56:29.287Z,95.50
2018-11-25T11:57:29.271Z,95.92
2018-11-25T11:58:29.301Z,96.02
2018-11-25T11:59:29.259Z,96.54
2018-11-25T12:00:29.247Z,96.39
2018-11-25T12:01:29.278Z,96.23
2018-11-25T12:02:31.607Z,95.67
2018-11-25T12:03:29.239Z,95.25
2018-11-25T12:04:29.208Z,95.77
2018-11-25T12:05:29.183Z,94.94
2018-11-25T12:06:29.233Z,94.63
2018-11-25T12:07:29.163Z,94.53
2018-11-25T12:08:29.183Z,94.01
2018-11-25T12:09:29.155Z,94.28
2018-11-25T12:10:29.150Z,94.18
2018-11-25T12:11:29.132Z,94.28
2018-11-25T12:12:29.116Z,94.38
2018-11-25T12:13:29.141Z,94.28
2018-11-25T12:14:29.092Z,94.01
2018-11-25T12:15:30.617Z,94.28
2018-11-25T12:16:29.077Z,94.28
2018-11-25T12:17:29.051Z,94.48
2018-11-25T12:18:29.070Z,93.87
2018-11-25T12:19:29.033Z,93.24
2018-11-25T12:20:29.080Z,93.04
2018-11-25T12:21:29.041Z,93.24
2018-11-25T12:22:29.002Z,94.28
2018-11-25T12:23:29.018Z,93.45
2018-11-25T12:24:28.979Z,93.55
2018-11-25T12:25:28.985Z,92.89
2018-11-25T12:26:28.985Z,93.20
2018-11-25T12:27:28.939Z,93.10
2018-11-25T12:28:28.977Z,93.41
2018-11-25T12:29:28.916Z,93.04
2018-11-25T12:30:28.910Z,92.89
2018-11-25T12:31:28.935Z,93.10
2018-11-25T12:32:28.903Z,93.14
2018-11-25T12:33:28.897Z,92.72
2018-11-25T12:34:28.862Z,92.93
2018-11-25T12:35:28.851Z,93.51
2018-11-25T12:36:28.865Z,93.55
2018-11-25T12:37:29.266Z,93.97
2018-11-25T12:38:28.825Z,93.87
2018-11-25T12:39:28.888Z,94.18
2018-11-25T12:40:28.801Z,94.01
2018-11-25T12:41:28.813Z,94.63
2018-11-25T12:42:28.786Z,95.67
2018-11-25T12:43:28.782Z,95.25
2018-11-25T12:44:29.249Z,96.12
2018-11-25T12:45:28.748Z,95.71
2018-11-25T12:46:28.755Z,95.67
2018-11-25T12:47:28.772Z,95.67
2018-11-25T12:48:28.716Z,95.00
2018-11-25T12:49:28.734Z,94.90
2018-11-25T12:50:28.686Z,95.15
2018-11-25T12:51:28.709Z,94.84
2018-11-25T12:52:28.665Z,95.81